createdAt,value
2023-05-04T00:00:11.271Z,6.55
2023-05-04T00:02:40.317Z,6.88
2023-05-04T00:05:12.373Z,6.82
2023-05-04T00:07:40.484Z,6.57
2023-05-04T00:10:09.659Z,6.82
2023-05-04T00:12:40.302Z,8.35
2023-05-04T00:15:11.637Z,6.57
2023-05-04T00:17:42.359Z,8.18
2023-05-04T00:20:11.479Z,7.10
2023-05-04T00:22:39.769Z,6.97
2023-05-04T00:25:09.552Z,7.97
2023-05-04T00:27:37.545Z,8.45
2023-05-04T00:30:06.666Z,8.25
2023-05-04T00:32:37.048Z,8.10
2023-05-04T00:35:05.576Z,8.15
2023-05-04T00:37:33.601Z,7.88
2023-05-04T00:40:02.136Z,8.18
2023-05-04T00:42:31.660Z,8.35
2023-05-04T00:45:01.869Z,7.80
2023-05-04T00:47:34.166Z,8.52
2023-05-04T00:50:04.571Z,7.78
2023-05-04T00:52:33.456Z,7.75
2023-05-04T00:55:02.198Z,8.43
2023-05-04T00:57:30.325Z,8.35
2023-05-04T00:59:58.955Z,8.48
2023-05-04T01:02:28.427Z,7.07
2023-05-04T01:04:56.805Z,6.97
2023-05-04T01:07:28.626Z,7.30
2023-05-04T01:10:03.467Z,8.23
2023-05-04T01:12:35.682Z,8.43
2023-05-04T01:15:04.635Z,7.78
2023-05-04T01:17:33.250Z,7.78
2023-05-04T01:20:01.504Z,8.38
2023-05-04T01:22:34.447Z,8.27
2023-05-04T01:25:02.485Z,8.18
2023-05-04T01:27:38.937Z,8.82
2023-05-04T01:30:14.739Z,8.38
2023-05-04T01:32:48.417Z,8.68
2023-05-04T01:35:16.964Z,8.52
2023-05-04T01:37:49.594Z,7.97
2023-05-04T01:40:19.134Z,7.55
2023-05-04T01:42:47.241Z,7.97
2023-05-04T01:45:19.672Z,7.90
2023-05-04T01:47:48.356Z,7.65
2023-05-04T01:50:16.531Z,7.40
2023-05-04T01:52:45.428Z,7.22
2023-05-04T01:55:15.333Z,7.55
2023-05-04T01:57:45.444Z,6.97
2023-05-04T02:00:16.883Z,7.45
2023-05-04T02:02:46.756Z,6.80
2023-05-04T02:05:20.294Z,7.28
2023-05-04T02:07:56.300Z,6.95
2023-05-04T02:10:26.295Z,7.18
2023-05-04T02:12:55.665Z,7.38
2023-05-04T02:15:24.748Z,7.43
2023-05-04T02:17:54.926Z,6.97
2023-05-04T02:20:23.289Z,6.68
2023-05-04T02:22:52.446Z,8.02
2023-05-04T02:25:21.965Z,7.22
2023-05-04T02:27:51.855Z,6.95
2023-05-04T02:30:20.422Z,7.38
2023-05-04T02:32:48.600Z,8.00
2023-05-04T02:35:17.091Z,7.05
2023-05-04T02:37:46.201Z,6.88
2023-05-04T02:40:14.923Z,7.43
2023-05-04T02:42:43.183Z,8.00
2023-05-04T02:45:14.618Z,8.77
2023-05-04T02:47:42.718Z,8.70
2023-05-04T02:50:13.021Z,8.45
2023-05-04T02:52:41.506Z,7.53
2023-05-04T02:55:10.662Z,7.85
2023-05-04T02:57:39.190Z,7.75
2023-05-04T03:00:08.630Z,8.13
2023-05-04T03:02:38.119Z,8.50
2023-05-04T03:05:06.889Z,8.30
2023-05-04T03:07:35.474Z,8.82
2023-05-04T03:10:03.592Z,8.18
2023-05-04T03:12:32.496Z,9.20
2023-05-04T03:15:00.626Z,8.95
2023-05-04T03:17:29.198Z,7.43
2023-05-04T03:19:59.518Z,9.20
2023-05-04T03:22:30.288Z,7.82
2023-05-04T03:25:00.896Z,8.68
2023-05-04T03:27:28.985Z,8.70
2023-05-04T03:29:58.793Z,8.40
2023-05-04T03:32:28.054Z,9.52
2023-05-04T03:34:56.081Z,8.27
2023-05-04T03:37:28.510Z,8.38
2023-05-04T03:39:57.089Z,9.00
2023-05-04T03:42:28.958Z,9.50
2023-05-04T03:44:57.388Z,9.52
2023-05-04T03:47:29.135Z,9.45
2023-05-04T03:49:57.248Z,9.57
2023-05-04T03:52:25.358Z,9.05
2023-05-04T03:54:55.985Z,9.15
2023-05-04T03:57:24.339Z,8.93
2023-05-04T03:59:57.603Z,9.95
2023-05-04T04:02:31.684Z,9.07
2023-05-04T04:04:59.748Z,9.30
2023-05-04T04:07:30.360Z,8.55
2023-05-04T04:09:59.860Z,8.80
2023-05-04T04:12:28.023Z,9.25
2023-05-04T04:14:57.612Z,9.10
2023-05-04T04:17:25.969Z,9.48
2023-05-04T04:19:53.978Z,9.63
2023-05-04T04:22:23.573Z,10.38
2023-05-04T04:24:51.684Z,9.18
2023-05-04T04:27:21.990Z,8.90
2023-05-04T04:29:50.543Z,9.52
2023-05-04T04:32:18.853Z,8.05
2023-05-04T04:34:47.404Z,8.20
2023-05-04T04:37:15.755Z,8.35
2023-05-04T04:39:46.390Z,8.60
2023-05-04T04:42:14.448Z,9.18
2023-05-04T04:44:45.595Z,8.75
2023-05-04T04:47:16.795Z,8.63
2023-05-04T04:49:45.623Z,8.48
2023-05-04T04:52:15.602Z,8.77
2023-05-04T04:54:45.370Z,8.13
2023-05-04T04:57:13.643Z,8.20
2023-05-04T04:59:43.359Z,9.10
2023-05-04T05:02:11.821Z,7.38
2023-05-04T05:04:41.266Z,7.88
2023-05-04T05:07:10.397Z,7.55
2023-05-04T05:09:39.745Z,6.90
2023-05-04T05:12:08.021Z,7.30
2023-05-04T05:14:36.757Z,7.05
2023-05-04T05:17:08.219Z,6.40
2023-05-04T05:19:37.248Z,6.10
2023-05-04T05:22:05.954Z,7.32
2023-05-04T05:24:35.643Z,7.47
2023-05-04T05:27:04.675Z,6.72
2023-05-04T05:29:32.784Z,6.32
2023-05-04T05:32:01.737Z,7.00
2023-05-04T05:34:32.983Z,6.82
2023-05-04T05:37:03.478Z,6.55
2023-05-04T05:39:32.186Z,6.47
2023-05-04T05:42:00.412Z,7.57
2023-05-04T05:44:30.930Z,6.25
2023-05-04T05:46:59.142Z,5.80
2023-05-04T05:49:27.722Z,6.50
2023-05-04T05:51:58.924Z,5.40
2023-05-04T05:54:27.373Z,5.30
2023-05-04T05:56:55.938Z,5.03
2023-05-04T05:59:25.640Z,4.85
2023-05-04T06:01:55.582Z,5.18
2023-05-04T06:04:26.948Z,6.20
2023-05-04T06:06:57.375Z,5.10
2023-05-04T06:09:27.035Z,5.75
2023-05-04T06:11:55.639Z,4.65
2023-05-04T06:14:24.108Z,5.72
2023-05-04T06:16:54.596Z,5.20
2023-05-04T06:19:23.199Z,5.85
2023-05-04T06:21:51.800Z,5.43
2023-05-04T06:24:22.688Z,5.90
2023-05-04T06:26:51.532Z,5.75
2023-05-04T06:29:20.613Z,5.63
2023-05-04T06:31:49.990Z,5.60
2023-05-04T06:34:21.500Z,5.68
2023-05-04T06:36:57.623Z,5.38
2023-05-04T06:39:27.392Z,5.47
2023-05-04T06:41:56.011Z,5.50
2023-05-04T06:44:24.716Z,5.07
2023-05-04T06:46:52.771Z,5.50
2023-05-04T06:49:21.949Z,5.13
2023-05-04T06:51:50.205Z,4.97
2023-05-04T06:54:20.531Z,5.57
2023-05-04T06:56:50.176Z,4.97
2023-05-04T06:59:20.335Z,4.28
2023-05-04T07:01:49.250Z,5.10
2023-05-04T07:04:17.600Z,4.07
2023-05-04T07:06:45.969Z,5.60
2023-05-04T07:09:16.184Z,4.75
2023-05-04T07:11:46.077Z,5.22
2023-05-04T07:14:15.663Z,4.40
2023-05-04T07:16:43.962Z,5.10
2023-05-04T07:19:12.548Z,5.88
2023-05-04T07:21:41.508Z,6.38
2023-05-04T07:24:11.269Z,5.13
2023-05-04T07:26:39.432Z,4.53
2023-05-04T07:29:07.461Z,4.18
2023-05-04T07:31:38.337Z,4.32
2023-05-04T07:34:07.523Z,4.03
2023-05-04T07:36:36.596Z,4.72
2023-05-04T07:39:04.907Z,4.10
2023-05-04T07:41:33.036Z,5.75
2023-05-04T07:44:05.448Z,5.18
2023-05-04T07:46:34.100Z,5.20
2023-05-04T07:49:04.129Z,4.50
2023-05-04T07:51:32.606Z,3.83
2023-05-04T07:54:00.866Z,4.07
2023-05-04T07:56:29.112Z,6.53
2023-05-04T07:58:57.631Z,10.95
2023-05-04T08:01:26.121Z,17.27
2023-05-04T08:03:54.541Z,9.68
2023-05-04T08:06:24.434Z,5.32
2023-05-04T08:08:53.661Z,4.03
2023-05-04T08:11:21.910Z,3.53
2023-05-04T08:13:50.671Z,3.42
2023-05-04T08:16:19.290Z,3.75
2023-05-04T08:18:47.354Z,4.53
2023-05-04T08:21:15.904Z,3.80
2023-05-04T08:23:45.583Z,4.10
2023-05-04T08:26:14.028Z,3.42
2023-05-04T08:28:42.807Z,3.90
2023-05-04T08:31:13.409Z,3.78
2023-05-04T08:33:42.445Z,3.97
2023-05-04T08:36:12.937Z,3.80
2023-05-04T08:38:41.085Z,4.00
2023-05-04T08:41:11.671Z,3.45
2023-05-04T08:43:39.952Z,3.83
2023-05-04T08:46:08.103Z,4.50
2023-05-04T08:48:36.891Z,3.95
2023-05-04T08:51:05.370Z,3.90
2023-05-04T08:53:34.246Z,4.30
2023-05-04T08:56:04.538Z,3.90
2023-05-04T08:58:37.752Z,4.50
2023-05-04T09:01:08.327Z,3.75
2023-05-04T09:03:37.102Z,4.07
2023-05-04T09:06:08.557Z,4.50
2023-05-04T09:08:37.287Z,4.40
2023-05-04T09:11:06.223Z,4.18
2023-05-04T09:13:38.624Z,4.15
2023-05-04T09:16:07.837Z,4.22
2023-05-04T09:18:41.079Z,4.40
2023-05-04T09:21:09.596Z,4.68
2023-05-04T09:23:47.983Z,4.20
2023-05-04T09:26:18.823Z,4.70
2023-05-04T09:28:48.685Z,4.25
2023-05-04T09:31:17.491Z,3.90
2023-05-04T09:33:45.697Z,4.70
2023-05-04T09:36:16.534Z,4.80
2023-05-04T09:38:45.503Z,4.60
2023-05-04T09:41:14.355Z,4.20
2023-05-04T09:43:44.815Z,4.78
2023-05-04T09:46:19.357Z,4.05
2023-05-04T09:48:57.134Z,4.55
2023-05-04T09:51:29.003Z,4.80
2023-05-04T09:54:01.602Z,4.40
2023-05-04T09:56:39.972Z,4.88
2023-05-04T09:59:11.317Z,4.68
2023-05-04T10:04:14.606Z,4.97
2023-05-04T10:06:44.849Z,4.13
2023-05-04T10:09:15.788Z,4.30
2023-05-04T10:11:44.545Z,4.90
2023-05-04T10:14:15.504Z,4.40
2023-05-04T10:16:51.706Z,5.43
2023-05-04T10:19:33.496Z,5.28
2023-05-04T10:22:13.064Z,4.10
2023-05-04T10:25:12.922Z,4.47
2023-05-04T10:27:50.242Z,4.90
2023-05-04T10:30:21.489Z,4.63
2023-05-04T10:32:57.854Z,4.18
2023-05-04T10:35:26.882Z,4.50
2023-05-04T10:37:56.082Z,4.38
2023-05-04T10:40:38.557Z,4.25
2023-05-04T10:45:37.738Z,3.38
2023-05-04T10:48:08.170Z,3.65
2023-05-04T10:50:44.241Z,4.00
2023-05-04T10:53:12.792Z,2.80
2023-05-04T10:55:42.764Z,3.20
2023-05-04T10:58:14.980Z,2.80
2023-05-04T11:00:44.749Z,2.80
2023-05-04T11:03:16.176Z,2.42
2023-05-04T11:05:45.536Z,2.50
2023-05-04T11:08:18.160Z,2.38
2023-05-04T11:10:47.846Z,3.00
2023-05-04T11:13:17.064Z,3.10
2023-05-04T11:15:46.479Z,3.35
2023-05-04T11:18:28.889Z,3.55
2023-05-04T11:20:58.713Z,2.67
2023-05-04T11:23:27.196Z,2.72
2023-05-04T11:25:58.935Z,2.40
2023-05-04T11:28:35.885Z,2.78
2023-05-04T11:31:14.117Z,2.60
2023-05-04T11:33:48.523Z,2.58
2023-05-04T11:36:20.906Z,2.30
2023-05-04T11:38:52.023Z,2.25
2023-05-04T11:41:20.325Z,2.60
2023-05-04T11:43:48.594Z,2.70
2023-05-04T11:46:17.493Z,2.53
2023-05-04T11:48:47.460Z,2.50
2023-05-04T11:51:16.750Z,2.50
2023-05-04T11:53:44.943Z,2.30
2023-05-04T11:56:13.993Z,2.53
2023-05-04T11:58:46.099Z,2.28
2023-05-04T12:01:14.701Z,2.03
2023-05-04T12:03:53.712Z,2.50
2023-05-04T12:06:34.533Z,2.30
2023-05-04T12:09:07.100Z,2.10
2023-05-04T12:11:38.635Z,2.25
2023-05-04T12:14:09.667Z,2.20
2023-05-04T12:16:39.251Z,2.50
2023-05-04T12:19:11.849Z,2.47
2023-05-04T12:21:51.959Z,2.42
2023-05-04T12:24:22.371Z,2.70
2023-05-04T12:26:52.428Z,3.83
2023-05-04T12:29:20.784Z,2.47
2023-05-04T12:31:48.940Z,2.20
2023-05-04T12:34:17.682Z,2.67
2023-05-04T12:36:47.053Z,2.70
2023-05-04T12:39:15.342Z,1.80
2023-05-04T12:41:43.448Z,2.13
2023-05-04T12:44:14.316Z,2.30
2023-05-04T12:46:45.813Z,1.92
2023-05-04T12:49:15.703Z,2.40
2023-05-04T12:51:44.084Z,2.35
2023-05-04T12:54:13.569Z,2.70
2023-05-04T12:56:41.946Z,2.72
2023-05-04T12:59:10.262Z,2.95
2023-05-04T13:01:40.112Z,3.00
2023-05-04T13:04:08.355Z,2.50
2023-05-04T13:06:39.545Z,2.60
2023-05-04T13:09:08.984Z,2.67
2023-05-04T13:11:38.453Z,2.63
2023-05-04T13:14:07.321Z,2.50
2023-05-04T13:16:36.142Z,3.00
2023-05-04T13:19:04.851Z,3.10
2023-05-04T13:21:32.817Z,3.60
2023-05-04T13:24:01.739Z,3.47
2023-05-04T13:26:29.981Z,2.78
2023-05-04T13:29:03.805Z,3.40
2023-05-04T13:31:33.419Z,3.42
2023-05-04T13:34:01.528Z,2.95
2023-05-04T13:36:30.797Z,2.88
2023-05-04T13:38:59.775Z,3.13
2023-05-04T13:41:28.065Z,3.25
2023-05-04T13:43:57.755Z,2.97
2023-05-04T13:46:28.158Z,3.05
2023-05-04T13:48:57.336Z,3.08
2023-05-04T13:51:25.403Z,2.78
2023-05-04T13:53:55.549Z,2.97
2023-05-04T13:56:23.742Z,2.53
2023-05-04T13:58:53.344Z,2.65
2023-05-04T14:01:23.332Z,2.55
2023-05-04T14:03:54.278Z,2.67
2023-05-04T14:06:30.556Z,2.50
2023-05-04T14:09:00.024Z,2.80
2023-05-04T14:11:29.515Z,2.58
2023-05-04T14:13:57.854Z,3.20
2023-05-04T14:16:26.357Z,2.75
2023-05-04T14:18:58.224Z,2.30
2023-05-04T14:21:26.775Z,2.60
2023-05-04T14:23:56.680Z,3.22
2023-05-04T14:26:30.489Z,2.30
2023-05-04T14:28:59.174Z,2.47
2023-05-04T14:31:30.166Z,2.33
2023-05-04T14:33:59.879Z,2.30
2023-05-04T14:36:28.688Z,2.50
2023-05-04T14:38:56.760Z,2.70
2023-05-04T14:41:25.759Z,2.83
2023-05-04T14:43:54.034Z,2.00
2023-05-04T14:46:25.340Z,2.42
2023-05-04T14:48:56.958Z,2.23
2023-05-04T14:51:27.587Z,2.15
2023-05-04T14:53:55.849Z,2.70
2023-05-04T14:56:27.706Z,2.55
2023-05-04T14:58:57.200Z,2.40
2023-05-04T15:01:26.016Z,2.30
2023-05-04T15:03:57.052Z,2.20
2023-05-04T15:06:32.566Z,2.28
2023-05-04T15:09:01.228Z,2.28
2023-05-04T15:11:30.393Z,2.13
2023-05-04T15:13:59.386Z,2.33
2023-05-04T15:16:32.320Z,2.40
2023-05-04T15:19:00.612Z,2.25
2023-05-04T15:21:30.056Z,2.33
2023-05-04T15:23:59.451Z,2.47
2023-05-04T15:26:28.958Z,2.60
2023-05-04T15:28:59.283Z,2.30
2023-05-04T15:31:27.313Z,2.58
2023-05-04T15:34:03.634Z,2.30
2023-05-04T15:36:33.389Z,2.45
2023-05-04T15:39:01.805Z,2.50
2023-05-04T15:41:31.856Z,2.38
2023-05-04T15:44:01.135Z,2.47
2023-05-04T15:46:32.165Z,2.95
2023-05-04T15:49:00.330Z,2.38
2023-05-04T15:51:32.011Z,2.58
2023-05-04T15:54:02.746Z,2.30
2023-05-04T15:56:33.877Z,2.90
2023-05-04T15:59:03.740Z,5.28
2023-05-04T16:01:34.885Z,3.28
2023-05-04T16:04:04.631Z,2.30
2023-05-04T16:06:35.246Z,2.40
2023-05-04T16:09:07.312Z,2.85
2023-05-04T16:11:36.758Z,2.65
2023-05-04T16:14:05.084Z,2.70
2023-05-04T16:16:34.526Z,2.80
2023-05-04T16:19:03.051Z,2.17
2023-05-04T16:21:31.323Z,2.17
2023-05-04T16:24:00.936Z,2.30
2023-05-04T16:26:30.998Z,2.40
2023-05-04T16:28:58.973Z,2.35
2023-05-04T16:31:28.007Z,2.60
2023-05-04T16:33:57.244Z,2.10
2023-05-04T16:36:25.322Z,2.28
2023-05-04T16:38:54.783Z,2.40
2023-05-04T16:41:24.675Z,2.70
2023-05-04T16:43:57.046Z,2.83
2023-05-04T16:46:25.547Z,2.63
2023-05-04T16:48:54.805Z,4.85
2023-05-04T16:51:24.186Z,2.60
2023-05-04T16:53:52.456Z,2.70
2023-05-04T16:56:24.457Z,2.85
2023-05-04T16:58:54.680Z,2.80
2023-05-04T17:01:23.377Z,2.58
2023-05-04T17:03:52.027Z,2.53
2023-05-04T17:06:20.119Z,2.60
2023-05-04T17:08:48.094Z,2.35
2023-05-04T17:11:17.582Z,2.30
2023-05-04T17:13:46.555Z,2.58
2023-05-04T17:16:20.115Z,2.40
2023-05-04T17:18:49.053Z,2.40
2023-05-04T17:21:17.580Z,2.65
2023-05-04T17:23:46.214Z,3.15
2023-05-04T17:26:14.310Z,2.63
2023-05-04T17:28:43.044Z,2.78
2023-05-04T17:31:12.320Z,3.10
2023-05-04T17:33:45.689Z,2.85
2023-05-04T17:36:17.919Z,2.58
2023-05-04T17:38:46.404Z,2.85
2023-05-04T17:41:14.776Z,2.55
2023-05-04T17:43:45.661Z,2.20
2023-05-04T17:46:14.621Z,2.38
2023-05-04T17:48:46.166Z,2.83
2023-05-04T17:51:14.317Z,3.65
2023-05-04T17:53:42.830Z,3.13
2023-05-04T17:56:12.070Z,2.58
2023-05-04T17:58:42.216Z,2.72
2023-05-04T18:01:11.301Z,2.72
2023-05-04T18:03:39.881Z,2.30
2023-05-04T18:06:09.852Z,2.65
2023-05-04T18:08:40.312Z,3.90
2023-05-04T18:11:12.284Z,3.22
2023-05-04T18:13:40.839Z,4.57
2023-05-04T18:16:10.680Z,4.05
2023-05-04T18:18:39.059Z,2.95
2023-05-04T18:21:09.670Z,2.50
2023-05-04T18:23:41.621Z,3.10
2023-05-04T18:26:10.319Z,3.13
2023-05-04T18:28:40.608Z,3.47
2023-05-04T18:31:08.873Z,3.25
2023-05-04T18:33:37.050Z,3.80
2023-05-04T18:36:05.475Z,3.28
2023-05-04T18:38:34.740Z,4.20
2023-05-04T18:41:05.550Z,3.60
2023-05-04T18:43:33.765Z,3.35
2023-05-04T18:46:07.966Z,3.05
2023-05-04T18:48:38.152Z,3.17
2023-05-04T18:51:06.379Z,3.70
2023-05-04T18:53:35.986Z,3.83
2023-05-04T18:56:08.990Z,3.38
2023-05-04T18:58:39.107Z,3.20
2023-05-04T19:01:10.028Z,3.00
2023-05-04T19:03:38.451Z,3.58
2023-05-04T19:06:07.796Z,3.30
2023-05-04T19:08:36.117Z,3.15
2023-05-04T19:11:05.507Z,3.53
2023-05-04T19:13:33.602Z,4.43
2023-05-04T19:16:01.994Z,3.55
2023-05-04T19:18:30.775Z,3.72
2023-05-04T19:20:59.031Z,3.72
2023-05-04T19:23:30.691Z,4.00
2023-05-04T19:25:59.347Z,3.75
2023-05-04T19:28:29.392Z,3.60
2023-05-04T19:30:59.744Z,3.70
2023-05-04T19:33:40.346Z,4.25
2023-05-04T19:36:16.126Z,4.32
2023-05-04T19:38:46.955Z,4.45
2023-05-04T19:41:16.551Z,4.10
2023-05-04T19:43:47.487Z,4.18
2023-05-04T19:46:15.794Z,3.85
2023-05-04T19:48:44.246Z,3.88
2023-05-04T19:51:14.285Z,4.57
2023-05-04T19:53:42.953Z,3.80
2023-05-04T19:56:11.130Z,3.83
2023-05-04T19:58:39.596Z,3.50
2023-05-04T20:01:09.194Z,3.42
2023-05-04T20:03:38.544Z,3.13
2023-05-04T20:06:09.134Z,2.95
2023-05-04T20:08:37.223Z,3.28
2023-05-04T20:11:05.361Z,3.40
2023-05-04T20:13:34.690Z,2.83
2023-05-04T20:16:03.004Z,2.95
2023-05-04T20:18:32.689Z,3.08
2023-05-04T20:21:00.840Z,3.10
2023-05-04T20:23:29.278Z,3.35
2023-05-04T20:25:57.727Z,3.35
2023-05-04T20:28:27.090Z,3.40
2023-05-04T20:30:55.111Z,3.60
2023-05-04T20:33:24.411Z,3.40
2023-05-04T20:35:54.445Z,4.25
2023-05-04T20:38:22.414Z,5.43
2023-05-04T20:40:52.500Z,3.47
2023-05-04T20:43:21.156Z,3.28
2023-05-04T20:45:49.652Z,3.30
2023-05-04T20:48:19.413Z,3.47
2023-05-04T20:50:47.772Z,3.17
2023-05-04T20:53:20.769Z,3.58
2023-05-04T20:55:50.510Z,3.58
2023-05-04T20:58:20.263Z,3.95
2023-05-04T21:00:57.841Z,3.88
2023-05-04T21:03:26.043Z,4.45
2023-05-04T21:05:57.271Z,3.92
2023-05-04T21:08:26.806Z,4.13
2023-05-04T21:10:55.443Z,3.72
2023-05-04T21:13:23.503Z,4.07
2023-05-04T21:15:52.109Z,3.42
2023-05-04T21:18:20.235Z,3.97
2023-05-04T21:20:48.970Z,4.75
2023-05-04T21:23:18.492Z,3.60
2023-05-04T21:25:50.521Z,3.30
2023-05-04T21:28:19.951Z,3.20
2023-05-04T21:30:49.758Z,3.70
2023-05-04T21:33:21.704Z,3.45
2023-05-04T21:35:51.647Z,3.28
2023-05-04T21:38:22.418Z,3.10
2023-05-04T21:40:56.077Z,3.53
2023-05-04T21:43:29.002Z,3.50
2023-05-04T21:45:58.849Z,3.78
2023-05-04T21:48:27.427Z,4.60
2023-05-04T21:50:56.806Z,3.92
2023-05-04T21:53:24.933Z,3.70
2023-05-04T21:55:54.830Z,4.15
2023-05-04T21:58:24.390Z,4.03
2023-05-04T22:00:52.684Z,4.07
2023-05-04T22:03:20.956Z,3.53
2023-05-04T22:05:54.424Z,4.55
2023-05-04T22:08:24.872Z,5.18
2023-05-04T22:10:56.599Z,5.70
2023-05-04T22:13:26.340Z,4.78
2023-05-04T22:15:55.164Z,5.45
2023-05-04T22:18:23.596Z,5.97
2023-05-04T22:20:56.054Z,5.00
2023-05-04T22:23:26.040Z,5.20
2023-05-04T22:25:55.445Z,5.47
2023-05-04T22:28:23.680Z,4.75
2023-05-04T22:30:52.385Z,4.53
2023-05-04T22:33:21.924Z,5.07
2023-05-04T22:35:50.208Z,4.45
2023-05-04T22:38:24.909Z,4.22
2023-05-04T22:40:57.689Z,4.38
2023-05-04T22:43:42.516Z,3.92
2023-05-04T22:46:16.756Z,3.95
2023-05-04T22:48:46.514Z,3.50
2023-05-04T22:51:15.145Z,3.90
2023-05-04T22:53:43.288Z,4.03
2023-05-04T22:56:11.655Z,4.15
2023-05-04T22:58:42.475Z,3.53
2023-05-04T23:01:12.750Z,4.30
2023-05-04T23:03:41.024Z,3.72
2023-05-04T23:06:09.890Z,3.75
2023-05-04T23:08:39.271Z,3.90
2023-05-04T23:11:07.529Z,3.20
2023-05-04T23:13:35.896Z,3.47
2023-05-04T23:16:08.387Z,4.07
2023-05-04T23:18:37.357Z,3.95
2023-05-04T23:21:07.787Z,3.80
2023-05-04T23:23:35.969Z,3.63
2023-05-04T23:26:04.377Z,3.72
2023-05-04T23:28:32.695Z,3.50
2023-05-04T23:31:01.265Z,3.47
2023-05-04T23:33:32.659Z,3.65
2023-05-04T23:36:00.918Z,3.83
2023-05-04T23:38:28.960Z,3.50
2023-05-04T23:40:57.822Z,3.83
2023-05-04T23:43:26.083Z,3.85
2023-05-04T23:46:03.638Z,3.67
2023-05-04T23:48:33.751Z,3.40
2023-05-04T23:51:04.695Z,3.90
2023-05-04T23:53:33.730Z,3.60
2023-05-04T23:56:04.123Z,3.30
2023-05-04T23:58:34.069Z,3.53
